Aviator — V7NU9 — position and weather

sailwx.info

Track history (hours):
 
Tides and Currents Weather Stations Pressure Air Temp Water Temp Dewpoint Dewpoint Depression Visibility Wind Speed Wind Dir Waves Ship Positions

Aviator

Last reported at 2015-Jul-01 03:23 UTC. Time now 2015-Jul-01 21:10 UTC.
Position S 27°52' W 048°21'.

Length 140 m; draft 7.3 m.

Type: Ship. MMSI: 538003023.

Date/timePositionNaut miles runAvg speedWind from/ knotsBaromVisibWave heightAir tempDewpointWater temp
2015-Jul-01 03:23S 27°52' W 048°21'1112.9
2015-Jul-01 02:33S 27°41' W 048°19'1313.2
2015-Jul-01 01:33S 27°28' W 048°16'  
2015-Jun-22 19:33S 25°27' W 046°57'1413.5
2015-Jun-22 18:33S 25°21' W 046°44'1313.4
2015-Jun-22 17:33S 25°15' W 046°30'1313.5
2015-Jun-22 16:33S 25°08' W 046°18'1513.5
2015-Jun-22 15:28S 25°01' W 046°03'1313.7
2015-Jun-22 14:33S 24°55' W 045°51'1313.6
2015-Jun-22 13:33S 24°48' W 045°38'1413.4
2015-Jun-22 12:33S 24°42' W 045°25'1413.6
2015-Jun-22 11:33S 24°36' W 045°12'1413.7
2015-Jun-22 10:33S 24°29' W 044°59'1413.9
2015-Jun-22 09:34S 24°22' W 044°45'  
Track history (hours):
 
Tides and Currents Weather Stations Pressure Air Temp Water Temp Dewpoint Dewpoint Depression Visibility Wind Speed Wind Dir Waves Ship Positions

Aviator

Last reported at 2015-Jul-01 03:23 UTC. Time now 2015-Jul-01 21:11 UTC.
Position S 27°52' W 048°21'.

Length 140 m; draft 7.3 m.

Type: Ship. MMSI: 538003023.

Date/timePositionNaut miles runAvg speedWind from/ knotsBaromVisibWave heightAir tempDewpointWater temp
2015-Jul-01 03:23S 27°52' W 048°21'1112.9
2015-Jul-01 02:33S 27°41' W 048°19'1313.2
2015-Jul-01 01:33S 27°28' W 048°16'  
2015-Jun-22 19:33S 25°27' W 046°57'1413.5
2015-Jun-22 18:33S 25°21' W 046°44'1313.4
2015-Jun-22 17:33S 25°15' W 046°30'1313.5
2015-Jun-22 16:33S 25°08' W 046°18'1513.5
2015-Jun-22 15:28S 25°01' W 046°03'1313.7
2015-Jun-22 14:33S 24°55' W 045°51'1313.6
2015-Jun-22 13:33S 24°48' W 045°38'1413.4
2015-Jun-22 12:33S 24°42' W 045°25'1413.6
2015-Jun-22 11:33S 24°36' W 045°12'1413.7
2015-Jun-22 10:33S 24°29' W 044°59'1413.9
2015-Jun-22 09:34S 24°22' W 044°45'  

Dump ship's entire track history